createdAt,value
2022-12-01T04:33:21.903Z,42.23
2022-12-01T04:48:26.318Z,41.90
2022-12-01T05:03:30.675Z,44.70
2022-12-01T05:18:35.549Z,39.63
2022-12-01T05:33:39.989Z,39.77
2022-12-01T05:48:44.694Z,39.83
2022-12-01T06:03:49.124Z,38.80
2022-12-01T06:18:53.559Z,34.23
2022-12-01T06:33:58.017Z,34.33
2022-12-01T06:49:02.438Z,35.63
2022-12-01T07:04:06.893Z,36.97
2022-12-01T07:19:11.382Z,34.37
2022-12-01T07:34:16.104Z,33.47
2022-12-01T07:49:20.690Z,30.60
2022-12-01T08:04:25.105Z,31.27
2022-12-01T08:19:29.582Z,29.93
2022-12-01T08:34:37.167Z,29.63
2022-12-01T08:49:41.503Z,29.93
2022-12-01T09:04:45.865Z,27.60
2022-12-01T09:19:50.546Z,29.23
2022-12-01T09:34:55.178Z,27.13
2022-12-01T09:50:03.386Z,28.27
2022-12-01T10:05:15.352Z,26.80
2022-12-01T10:20:24.765Z,27.50
2022-12-01T10:35:36.097Z,25.20
2022-12-01T10:50:40.956Z,25.03
2022-12-01T11:05:45.593Z,22.27
2022-12-01T11:21:07.026Z,24.30
2022-12-01T11:36:19.840Z,24.10
2022-12-01T11:51:31.838Z,24.03
2022-12-01T12:06:45.847Z,24.03
2022-12-01T12:22:05.292Z,25.63
2022-12-01T12:37:21.090Z,24.90
2022-12-01T12:52:31.117Z,25.43
2022-12-01T13:07:42.271Z,25.13
2022-12-01T13:22:48.214Z,22.70
2022-12-01T13:37:52.768Z,26.27
2022-12-01T13:53:11.621Z,26.37
2022-12-01T14:08:23.457Z,24.37
2022-12-01T14:23:33.678Z,23.67
2022-12-01T14:38:38.765Z,19.83
2022-12-01T14:53:45.736Z,19.83
2022-12-01T15:09:32.073Z,20.23
2022-12-01T15:24:31.726Z,21.40
2022-12-01T15:39:42.174Z,21.47
2022-12-01T15:54:49.774Z,22.40
2022-12-01T16:10:01.187Z,21.70
2022-12-01T16:25:06.424Z,23.70
2022-12-01T16:40:13.851Z,21.93
2022-12-01T16:55:26.687Z,22.80
2022-12-01T17:10:31.225Z,23.37
2022-12-01T17:25:35.665Z,23.27
2022-12-01T17:40:40.116Z,24.43
2022-12-01T17:55:44.564Z,25.90
2022-12-01T18:10:49.034Z,30.50
2022-12-01T18:25:53.351Z,30.00
2022-12-01T18:41:00.214Z,28.47
2022-12-01T18:56:06.651Z,28.17
2022-12-01T19:11:11.169Z,25.57
2022-12-01T19:26:17.871Z,24.67
2022-12-01T19:41:25.115Z,29.33
2022-12-01T19:56:30.221Z,22.77
2022-12-01T20:11:35.227Z,23.30
2022-12-01T20:26:42.428Z,23.47
2022-12-01T20:41:47.613Z,23.90
2022-12-01T20:56:52.051Z,23.23
2022-12-01T21:12:17.256Z,17.70
